Time;durP1;ratioP1;P1;durP2;ratioP2;P2;SDS_P1;SDS_P2;PMS_P1;PMS_P2;Temp;Humidity;BMP_temperature;BMP_pressure;BME280_temperature;BME280_humidity;BME280_pressure;Samples;Min_cycle;Max_cycle;Signal;HPM_P1;HPM_P2
2022/08/09 00:01:31;;;;;;;3.27;2.23;;;18.70;94.30;;;;;;488517;243;29282;-68
2022/08/09 00:03:32;;;;;;;2.67;2.40;;;18.70;94.30;;;;;;488511;243;29231;-68
2022/08/09 00:05:33;;;;;;;2.20;2.10;;;18.70;94.30;;;;;;488489;243;28757;-68
2022/08/09 00:07:34;;;;;;;2.73;2.27;;;18.70;94.30;;;;;;488453;243;28746;-67
2022/08/09 00:09:36;;;;;;;2.20;2.00;;;18.70;94.20;;;;;;488499;243;28783;-71
2022/08/09 00:11:37;;;;;;;3.03;2.30;;;18.70;94.20;;;;;;488508;243;28746;-69
2022/08/09 00:13:38;;;;;;;2.60;2.40;;;18.70;94.30;;;;;;488516;243;28714;-69
2022/08/09 00:15:39;;;;;;;2.37;2.27;;;18.70;94.40;;;;;;488498;243;28763;-68
2022/08/09 00:17:41;;;;;;;2.50;2.00;;;18.60;94.40;;;;;;488464;243;28793;-68
2022/08/09 00:19:42;;;;;;;3.80;2.20;;;18.50;94.60;;;;;;488479;243;28736;-71
2022/08/09 00:21:43;;;;;;;3.23;2.07;;;18.50;94.60;;;;;;488496;243;28699;-68
2022/08/09 00:23:44;;;;;;;3.53;2.00;;;18.50;94.70;;;;;;488484;243;29273;-69
2022/08/09 00:25:46;;;;;;;2.73;2.50;;;18.50;94.70;;;;;;488480;243;29368;-68
2022/08/09 00:27:47;;;;;;;2.30;2.20;;;18.60;94.70;;;;;;488470;243;29234;-68
2022/08/09 00:29:48;;;;;;;2.70;2.20;;;18.60;94.70;;;;;;488493;243;28721;-69
2022/08/09 00:31:49;;;;;;;4.70;2.33;;;18.50;94.80;;;;;;488465;243;28674;-68
2022/08/09 00:33:51;;;;;;;2.77;2.17;;;18.60;94.70;;;;;;488503;243;28749;-68
2022/08/09 00:35:52;;;;;;;5.50;2.30;;;18.50;94.80;;;;;;488366;243;28694;-68
2022/08/09 00:37:53;;;;;;;2.40;2.30;;;18.40;95.00;;;;;;488466;243;28735;-68
2022/08/09 00:39:54;;;;;;;2.40;2.20;;;18.40;95.10;;;;;;488456;243;28748;-70
2022/08/09 00:41:56;;;;;;;2.30;2.20;;;18.30;95.20;;;;;;488516;243;28695;-68
2022/08/09 00:43:57;;;;;;;2.17;2.07;;;18.30;95.30;;;;;;488468;243;28781;-69
2022/08/09 00:45:58;;;;;;;2.13;1.90;;;18.10;95.70;;;;;;488489;243;28673;-67
2022/08/09 00:47:59;;;;;;;2.27;2.17;;;18.20;95.50;;;;;;488458;243;29158;-68
2022/08/09 00:50:01;;;;;;;2.60;2.40;;;18.30;95.50;;;;;;488487;243;29291;-71
2022/08/09 00:52:02;;;;;;;2.10;2.00;;;18.20;95.60;;;;;;488221;243;29219;-68
2022/08/09 00:54:03;;;;;;;2.90;2.47;;;18.20;95.60;;;;;;488506;243;29180;-69
2022/08/09 00:56:04;;;;;;;2.20;2.10;;;18.10;95.60;;;;;;488481;243;28706;-70
2022/08/09 00:58:06;;;;;;;2.77;2.20;;;18.10;95.90;;;;;;488514;243;28709;-68
2022/08/09 01:00:10;;;;;;;2.33;2.23;;;18.00;96.00;;;;;;488555;243;28711;-70
2022/08/09 01:02:11;;;;;;;2.20;2.10;;;17.70;97.00;;;;;;488528;243;28808;-68
2022/08/09 01:04:12;;;;;;;2.60;2.30;;;17.30;97.50;;;;;;488496;243;29229;-68
2022/08/09 01:06:14;;;;;;;4.70;2.30;;;17.30;97.30;;;;;;488450;243;29176;-68
2022/08/09 01:08:15;;;;;;;2.40;2.30;;;17.50;97.20;;;;;;488549;243;29269;-71
2022/08/09 01:10:16;;;;;;;2.57;2.23;;;17.60;97.00;;;;;;488524;243;28701;-68
2022/08/09 01:12:17;;;;;;;2.43;2.33;;;17.20;97.50;;;;;;488546;243;28705;-70
2022/08/09 01:14:19;;;;;;;2.27;2.17;;;17.00;98.20;;;;;;488495;243;28835;-68
2022/08/09 01:16:20;;;;;;;2.10;2.00;;;16.80;98.80;;;;;;488470;243;28773;-69
2022/08/09 01:18:23;;;;;;;2.03;1.93;;;16.70;99.00;;;;;;488567;243;28710;-71
2022/08/09 01:20:23;;;;;;;2.13;2.03;;;16.60;99.00;;;;;;488549;243;28737;-70
2022/08/09 01:22:25;;;;;;;2.23;2.07;;;16.50;99.20;;;;;;488502;243;28760;-68
2022/08/09 01:24:26;;;;;;;2.10;2.00;;;16.50;99.30;;;;;;488451;243;29292;-69
2022/08/09 01:26:27;;;;;;;2.00;1.90;;;16.50;99.50;;;;;;488421;243;29280;-67
2022/08/09 01:28:28;;;;;;;2.23;2.13;;;16.50;99.60;;;;;;488528;243;29142;-68
2022/08/09 01:30:30;;;;;;;2.37;2.07;;;16.50;99.50;;;;;;488527;243;29177;-70
2022/08/09 01:32:31;;;;;;;1.90;1.80;;;16.60;99.40;;;;;;488522;243;28963;-67
2022/08/09 01:34:32;;;;;;;2.50;2.20;;;16.60;99.40;;;;;;488482;243;28733;-68
2022/08/09 01:36:33;;;;;;;2.10;2.00;;;16.60;99.50;;;;;;488287;243;28717;-67
2022/08/09 01:38:35;;;;;;;2.17;2.07;;;16.50;99.70;;;;;;488526;243;28669;-67
2022/08/09 01:40:36;;;;;;;2.17;2.07;;;16.50;99.70;;;;;;488489;243;28809;-70
2022/08/09 01:42:37;;;;;;;2.10;1.90;;;16.50;99.90;;;;;;488476;243;28697;-68
2022/08/09 01:44:40;;;;;;;2.13;2.03;;;16.40;99.90;;;;;;488471;243;28705;-68
2022/08/09 01:46:40;;;;;;;2.13;2.03;;;16.20;99.90;;;;;;488350;243;29146;-67
2022/08/09 01:48:41;;;;;;;2.00;1.90;;;16.10;99.90;;;;;;488506;243;29287;-68
2022/08/09 01:50:42;;;;;;;2.40;2.30;;;15.80;99.90;;;;;;488480;243;29188;-68
2022/08/09 01:52:43;;;;;;;2.00;1.90;;;15.70;99.90;;;;;;488467;243;29239;-68
2022/08/09 01:54:45;;;;;;;2.00;1.90;;;15.60;99.90;;;;;;488466;243;29172;-68
2022/08/09 01:56:46;;;;;;;1.93;1.83;;;15.50;99.90;;;;;;488507;243;28677;-68
2022/08/09 01:58:47;;;;;;;1.80;1.80;;;15.50;99.90;;;;;;488557;243;28674;-68
2022/08/09 02:00:48;;;;;;;1.93;1.83;;;15.40;99.90;;;;;;488563;243;28818;-70
2022/08/09 02:02:50;;;;;;;2.00;1.90;;;15.30;99.90;;;;;;488493;242;28661;-68
2022/08/09 02:04:51;;;;;;;2.30;2.20;;;15.20;99.90;;;;;;488525;243;28745;-69
2022/08/09 02:07:07;;;;;;;1.90;1.80;;;15.20;99.90;;;;;;488439;243;29098;-69
2022/08/09 02:09:09;;;;;;;2.03;1.93;;;15.20;99.90;;;;;;488525;243;29338;-71
2022/08/09 02:11:10;;;;;;;2.00;1.90;;;15.20;99.90;;;;;;488521;243;29220;-67
2022/08/09 02:13:11;;;;;;;1.80;1.80;;;15.20;99.90;;;;;;488515;243;29572;-69
2022/08/09 02:15:12;;;;;;;1.97;1.87;;;15.20;99.90;;;;;;488490;243;28764;-67
2022/08/09 02:17:13;;;;;;;1.97;1.87;;;15.20;99.90;;;;;;488436;243;28740;-68
2022/08/09 02:19:15;;;;;;;2.00;1.90;;;15.20;99.90;;;;;;488505;243;28777;-71
2022/08/09 02:21:16;;;;;;;2.00;1.90;;;15.10;99.90;;;;;;488508;243;28783;-67
2022/08/09 02:23:17;;;;;;;4.20;1.83;;;15.20;99.90;;;;;;488510;243;28787;-70
2022/08/09 02:25:18;;;;;;;2.00;1.90;;;15.20;99.90;;;;;;488496;243;28692;-68
2022/08/09 02:27:20;;;;;;;1.93;1.83;;;15.20;99.90;;;;;;488428;243;28716;-67
2022/08/09 02:29:21;;;;;;;1.90;1.80;;;15.20;99.90;;;;;;488517;243;29230;-67
2022/08/09 02:31:22;;;;;;;2.07;1.97;;;15.20;99.90;;;;;;488506;243;29205;-68
2022/08/09 02:33:23;;;;;;;2.00;1.90;;;15.10;99.90;;;;;;488507;243;29204;-68
2022/08/09 02:35:25;;;;;;;2.00;1.90;;;15.20;99.90;;;;;;488392;243;29420;-68
2022/08/09 02:37:26;;;;;;;1.67;1.67;;;15.20;99.90;;;;;;488438;243;29212;-68
2022/08/09 02:39:27;;;;;;;2.20;2.10;;;15.10;99.90;;;;;;488444;243;28690;-67
2022/08/09 02:41:28;;;;;;;1.80;1.70;;;15.10;99.90;;;;;;488509;243;28714;-67
2022/08/09 02:43:30;;;;;;;1.70;1.70;;;15.20;99.90;;;;;;488517;243;28764;-72
2022/08/09 02:45:31;;;;;;;2.10;2.00;;;15.10;99.90;;;;;;488493;243;28674;-67
2022/08/09 02:47:32;;;;;;;2.00;1.90;;;15.20;99.90;;;;;;488441;243;28797;-67
2022/08/09 02:49:33;;;;;;;2.20;2.10;;;15.10;99.90;;;;;;488553;243;28705;-69
2022/08/09 02:51:35;;;;;;;2.10;2.00;;;15.20;99.90;;;;;;488545;243;28766;-70
2022/08/09 02:53:36;;;;;;;2.00;1.90;;;15.10;99.90;;;;;;488525;243;28712;-69
2022/08/09 02:55:37;;;;;;;2.10;2.00;;;15.10;99.90;;;;;;488501;243;28734;-68
2022/08/09 02:57:38;;;;;;;2.10;2.00;;;15.10;99.90;;;;;;488405;243;29336;-67
2022/08/09 02:59:40;;;;;;;2.20;2.10;;;15.00;99.90;;;;;;488525;243;29193;-74
2022/08/09 03:01:41;;;;;;;2.20;2.10;;;15.00;99.90;;;;;;488512;243;29248;-67
2022/08/09 03:03:42;;;;;;;1.77;1.70;;;14.90;99.90;;;;;;488464;243;28784;-68
2022/08/09 03:05:43;;;;;;;2.00;1.90;;;14.90;99.90;;;;;;488314;243;28665;-67
2022/08/09 03:07:45;;;;;;;1.90;1.80;;;14.90;99.90;;;;;;488205;243;28823;-68
2022/08/09 03:09:46;;;;;;;1.60;1.60;;;15.00;99.90;;;;;;488340;243;28701;-69
2022/08/09 03:11:47;;;;;;;2.00;1.90;;;15.00;99.90;;;;;;488467;243;28678;-67
2022/08/09 03:13:48;;;;;;;1.97;1.87;;;15.00;99.90;;;;;;488501;243;28797;-69
2022/08/09 03:15:50;;;;;;;1.90;1.80;;;15.00;99.90;;;;;;488499;243;28760;-67
2022/08/09 03:17:51;;;;;;;1.97;1.87;;;14.90;99.90;;;;;;488409;243;28788;-68
2022/08/09 03:19:52;;;;;;;2.37;1.70;;;15.00;99.90;;;;;;488537;243;28824;-71
2022/08/09 03:21:53;;;;;;;1.80;1.73;;;14.90;99.90;;;;;;488521;243;29232;-67
2022/08/09 03:23:55;;;;;;;1.73;1.73;;;14.90;99.90;;;;;;488517;243;29284;-69
2022/08/09 03:25:56;;;;;;;2.17;2.03;;;14.90;99.90;;;;;;488494;243;29144;-68
2022/08/09 03:27:57;;;;;;;2.30;2.10;;;14.90;99.90;;;;;;488400;243;29286;-68
2022/08/09 03:29:58;;;;;;;1.97;1.87;;;14.80;99.90;;;;;;488525;243;28709;-71
2022/08/09 03:32:00;;;;;;;2.00;1.90;;;14.80;99.90;;;;;;488496;243;28664;-67
2022/08/09 03:34:02;;;;;;;2.10;1.90;;;14.80;99.90;;;;;;488495;243;28862;-69
2022/08/09 03:36:02;;;;;;;2.10;1.90;;;14.70;99.90;;;;;;488356;243;28780;-68
2022/08/09 03:38:03;;;;;;;2.20;2.10;;;14.70;99.90;;;;;;488467;243;28788;-67
2022/08/09 03:40:05;;;;;;;2.00;1.90;;;14.60;99.90;;;;;;488515;243;28731;-72
2022/08/09 03:42:06;;;;;;;3.23;2.70;;;14.50;99.90;;;;;;488500;243;28687;-67
2022/08/09 03:44:07;;;;;;;2.07;1.97;;;14.40;99.90;;;;;;488498;243;28741;-69
2022/08/09 03:46:08;;;;;;;2.17;2.07;;;14.30;99.90;;;;;;488413;243;28686;-68
2022/08/09 03:48:10;;;;;;;2.20;2.10;;;14.20;99.90;;;;;;488484;243;29288;-68
2022/08/09 03:50:11;;;;;;;3.47;2.10;;;14.10;99.90;;;;;;488508;243;29200;-73
2022/08/09 03:52:12;;;;;;;2.07;1.97;;;14.10;99.90;;;;;;488528;243;29051;-67
2022/08/09 03:54:13;;;;;;;2.30;2.20;;;14.20;99.90;;;;;;488482;243;28782;-68
2022/08/09 03:56:15;;;;;;;2.37;2.27;;;14.30;99.90;;;;;;488410;243;28693;-67
2022/08/09 03:58:16;;;;;;;2.13;2.03;;;14.30;99.90;;;;;;488498;243;28710;-68
2022/08/09 04:00:17;;;;;;;2.20;2.10;;;14.30;99.90;;;;;;488494;243;28713;-72
2022/08/09 04:02:19;;;;;;;2.40;2.30;;;14.20;99.90;;;;;;488533;243;28383;-68
2022/08/09 04:04:20;;;;;;;2.17;2.07;;;14.10;99.90;;;;;;488516;243;28402;-68
2022/08/09 04:06:21;;;;;;;2.20;1.90;;;14.10;99.90;;;;;;488460;243;28717;-67
2022/08/09 04:08:22;;;;;;;2.10;2.00;;;14.10;99.90;;;;;;488465;243;28722;-67
2022/08/09 04:10:24;;;;;;;2.20;2.10;;;14.20;99.90;;;;;;488526;243;28430;-70
2022/08/09 04:12:25;;;;;;;2.03;1.93;;;14.10;99.90;;;;;;488497;243;28963;-68
2022/08/09 04:14:26;;;;;;;3.07;2.00;;;14.20;99.90;;;;;;488495;243;29194;-69
2022/08/09 04:16:27;;;;;;;4.43;2.33;;;14.10;99.90;;;;;;488414;243;30083;-68
2022/08/09 04:18:29;;;;;;;2.20;2.10;;;14.20;99.90;;;;;;488524;243;28706;-67
2022/08/09 04:20:30;;;;;;;2.37;2.27;;;14.10;99.90;;;;;;488549;243;28828;-70
2022/08/09 04:22:31;;;;;;;2.10;2.00;;;14.20;99.90;;;;;;488515;243;28451;-68
2022/08/09 04:24:32;;;;;;;1.97;1.87;;;14.10;99.90;;;;;;488530;243;28728;-68
2022/08/09 04:26:34;;;;;;;3.43;2.03;;;14.10;99.90;;;;;;488421;243;28696;-67
2022/08/09 04:28:35;;;;;;;2.43;2.23;;;14.20;99.90;;;;;;488493;243;28790;-67
2022/08/09 04:30:36;;;;;;;2.30;2.20;;;14.20;99.90;;;;;;488527;243;28776;-70
2022/08/09 04:32:37;;;;;;;2.30;2.20;;;14.10;99.90;;;;;;488491;243;28675;-68
2022/08/09 04:34:39;;;;;;;2.50;2.40;;;14.10;99.90;;;;;;488494;243;28325;-68
2022/08/09 04:36:40;;;;;;;2.30;2.20;;;14.20;99.90;;;;;;488301;243;28977;-67
2022/08/09 04:38:41;;;;;;;2.10;2.00;;;14.20;99.90;;;;;;488504;243;29193;-68
2022/08/09 04:40:48;;;;;;;2.60;2.47;;;14.20;99.90;;;;;;488511;243;29303;-70
2022/08/09 04:42:49;;;;;;;2.20;2.03;;;14.20;99.90;;;;;;488515;243;28683;-67
2022/08/09 04:44:51;;;;;;;2.17;2.07;;;14.20;99.90;;;;;;488484;243;29209;-69
2022/08/09 04:46:52;;;;;;;2.10;2.00;;;14.20;99.90;;;;;;488428;243;29296;-67
2022/08/09 04:48:53;;;;;;;2.40;2.20;;;14.20;99.90;;;;;;488385;243;29211;-68
2022/08/09 04:50:54;;;;;;;2.23;2.13;;;14.20;99.90;;;;;;488485;243;28681;-68
2022/08/09 04:52:56;;;;;;;2.60;2.50;;;14.10;99.90;;;;;;488499;243;28809;-68
2022/08/09 04:54:58;;;;;;;2.40;2.30;;;14.00;99.90;;;;;;488497;243;28794;-70
2022/08/09 04:56:58;;;;;;;2.40;2.30;;;14.00;99.90;;;;;;488434;243;28671;-67
2022/08/09 04:58:59;;;;;;;2.23;2.13;;;14.00;99.90;;;;;;488469;243;28780;-69
2022/08/09 05:01:01;;;;;;;2.20;2.10;;;14.00;99.90;;;;;;488478;243;28812;-67
2022/08/09 05:03:02;;;;;;;2.63;2.43;;;14.00;99.90;;;;;;488496;243;28749;-68
2022/08/09 05:05:03;;;;;;;2.40;2.30;;;13.90;99.90;;;;;;488490;243;28443;-71
2022/08/09 05:07:04;;;;;;;3.63;2.23;;;13.90;99.90;;;;;;488423;243;28677;-67
2022/08/09 05:09:06;;;;;;;2.40;2.30;;;13.90;99.90;;;;;;488489;243;28527;-67
2022/08/09 05:11:07;;;;;;;2.23;2.13;;;13.90;99.90;;;;;;488476;243;28769;-67
2022/08/09 05:13:08;;;;;;;2.27;2.17;;;14.00;99.90;;;;;;488519;243;28273;-67
2022/08/09 05:15:10;;;;;;;2.70;2.60;;;14.10;99.90;;;;;;488466;243;28486;-68
2022/08/09 05:17:11;;;;;;;2.60;2.43;;;14.10;99.90;;;;;;488424;243;28691;-69
2022/08/09 05:19:13;;;;;;;2.73;2.43;;;14.10;99.90;;;;;;488474;243;28796;-67
2022/08/09 05:21:15;;;;;;;2.50;2.37;;;14.10;99.90;;;;;;488466;243;28805;-71
2022/08/09 05:23:16;;;;;;;2.43;2.23;;;14.10;99.90;;;;;;488429;243;28329;-68
2022/08/09 05:25:17;;;;;;;2.70;2.53;;;14.20;99.90;;;;;;488485;243;28677;-68
2022/08/09 05:27:18;;;;;;;2.50;2.40;;;14.30;99.90;;;;;;488418;243;28919;-69
2022/08/09 05:29:20;;;;;;;2.50;2.40;;;14.30;99.90;;;;;;488478;243;29299;-67
2022/08/09 05:31:21;;;;;;;2.77;2.10;;;14.40;99.90;;;;;;488481;243;29272;-68
2022/08/09 05:33:22;;;;;;;2.40;2.30;;;14.50;99.90;;;;;;488528;243;29326;-69
2022/08/09 05:35:23;;;;;;;2.83;2.63;;;14.60;99.90;;;;;;488497;243;28666;-67
2022/08/09 05:37:25;;;;;;;2.60;2.40;;;14.90;99.90;;;;;;488421;243;28714;-67
2022/08/09 05:39:26;;;;;;;2.20;2.10;;;15.00;99.90;;;;;;488503;243;28497;-67
2022/08/09 05:41:27;;;;;;;2.40;2.30;;;15.00;99.90;;;;;;488490;243;28662;-68
2022/08/09 05:43:28;;;;;;;2.93;2.73;;;15.10;99.90;;;;;;488489;243;28721;-70
2022/08/09 05:45:30;;;;;;;3.30;3.10;;;15.00;99.90;;;;;;488512;243;28686;-67
2022/08/09 05:47:31;;;;;;;2.80;2.60;;;14.90;99.90;;;;;;488463;243;28715;-67
2022/08/09 05:49:32;;;;;;;2.90;2.70;;;14.90;99.90;;;;;;488538;243;29059;-71
2022/08/09 05:51:33;;;;;;;2.47;2.37;;;14.90;99.90;;;;;;488543;243;28688;-67
2022/08/09 05:53:35;;;;;;;2.20;2.10;;;14.90;99.90;;;;;;488556;243;29275;-69
2022/08/09 05:55:36;;;;;;;2.20;2.10;;;15.10;99.90;;;;;;488530;243;29138;-67
2022/08/09 05:57:37;;;;;;;2.60;2.40;;;15.30;99.90;;;;;;488358;243;29274;-68
2022/08/09 05:59:38;;;;;;;2.40;2.30;;;15.50;99.90;;;;;;488535;243;28718;-71
2022/08/09 06:01:40;;;;;;;2.40;2.30;;;15.60;99.90;;;;;;488526;243;28760;-67
2022/08/09 06:03:41;;;;;;;2.40;2.20;;;15.70;99.90;;;;;;488462;243;28786;-69
2022/08/09 06:05:42;;;;;;;2.70;2.60;;;15.90;99.90;;;;;;488465;243;28716;-68
2022/08/09 06:07:43;;;;;;;2.60;2.40;;;16.20;99.90;;;;;;488460;243;28718;-67
2022/08/09 06:09:45;;;;;;;2.63;2.50;;;16.40;99.90;;;;;;488353;243;28813;-73
2022/08/09 06:11:46;;;;;;;2.90;2.70;;;16.50;99.90;;;;;;488498;243;28710;-68
2022/08/09 06:13:47;;;;;;;3.93;2.90;;;16.70;99.90;;;;;;488503;243;28704;-69
2022/08/09 06:15:48;;;;;;;3.20;2.90;;;17.20;99.90;;;;;;488510;243;28659;-68
2022/08/09 06:17:50;;;;;;;3.00;2.80;;;17.40;99.90;;;;;;488509;243;28750;-68
2022/08/09 06:19:51;;;;;;;5.03;3.50;;;17.60;99.90;;;;;;488439;243;28707;-70
2022/08/09 06:21:52;;;;;;;5.10;2.90;;;17.70;99.90;;;;;;488515;243;28719;-69
2022/08/09 06:23:54;;;;;;;3.07;2.87;;;17.70;99.90;;;;;;488508;243;28734;-69
2022/08/09 06:25:55;;;;;;;8.00;3.33;;;17.80;99.90;;;;;;488483;243;29931;-67
2022/08/09 06:27:56;;;;;;;2.97;2.60;;;17.80;99.90;;;;;;488475;243;29152;-68
2022/08/09 06:29:57;;;;;;;3.80;2.33;;;18.00;99.90;;;;;;488523;243;29278;-69
2022/08/09 06:31:58;;;;;;;2.63;2.40;;;18.00;99.90;;;;;;488497;243;28790;-68
2022/08/09 06:34:00;;;;;;;2.50;2.40;;;18.00;99.90;;;;;;488501;243;28777;-69
2022/08/09 06:36:01;;;;;;;2.63;2.43;;;18.10;99.90;;;;;;488426;243;28766;-75
2022/08/09 06:38:02;;;;;;;2.90;2.70;;;18.10;99.90;;;;;;488468;243;28794;-69
2022/08/09 06:40:03;;;;;;;3.73;2.97;;;18.10;99.90;;;;;;488466;243;28789;-69
2022/08/09 06:42:05;;;;;;;2.90;2.70;;;18.20;99.90;;;;;;488508;243;28806;-68
2022/08/09 06:44:06;;;;;;;3.20;2.90;;;18.20;99.90;;;;;;488502;243;28798;-69
2022/08/09 06:46:07;;;;;;;2.97;2.67;;;18.30;99.90;;;;;;488446;243;28722;-72
2022/08/09 06:48:09;;;;;;;5.60;2.83;;;18.20;99.90;;;;;;488538;243;28682;-68
2022/08/09 06:50:10;;;;;;;5.23;3.00;;;18.30;99.90;;;;;;488526;243;29183;-71
2022/08/09 06:52:11;;;;;;;3.40;2.90;;;18.40;99.90;;;;;;488525;243;29167;-68
2022/08/09 06:54:12;;;;;;;3.80;2.90;;;18.40;99.90;;;;;;488522;243;29208;-69
2022/08/09 06:56:14;;;;;;;2.97;2.77;;;18.50;99.90;;;;;;488446;243;28673;-68
2022/08/09 06:58:15;;;;;;;3.63;2.80;;;18.50;99.90;;;;;;488513;243;28767;-69
2022/08/09 07:00:16;;;;;;;3.70;2.93;;;18.50;99.90;;;;;;488515;243;28810;-72
2022/08/09 07:02:17;;;;;;;7.27;3.13;;;18.50;99.90;;;;;;488532;243;28675;-69
2022/08/09 07:04:19;;;;;;;3.37;3.07;;;18.60;99.90;;;;;;488539;243;28729;-69
2022/08/09 07:06:20;;;;;;;3.73;2.80;;;18.70;99.90;;;;;;488473;243;28779;-69
2022/08/09 07:08:21;;;;;;;2.80;2.60;;;18.90;99.90;;;;;;488545;243;28734;-68
2022/08/09 07:10:22;;;;;;;3.00;2.43;;;18.90;99.90;;;;;;488560;243;28735;-72
2022/08/09 07:12:24;;;;;;;2.80;2.37;;;19.10;99.90;;;;;;488545;243;28782;-68
2022/08/09 07:14:25;;;;;;;2.93;2.73;;;19.10;99.90;;;;;;488468;243;29288;-69
2022/08/09 07:16:26;;;;;;;2.80;2.60;;;19.20;99.90;;;;;;488460;243;29335;-68
2022/08/09 07:18:27;;;;;;;2.60;2.50;;;19.30;99.90;;;;;;488500;243;29180;-69
2022/08/09 07:20:29;;;;;;;3.90;2.63;;;19.40;99.90;;;;;;488531;243;29276;-72
2022/08/09 07:22:30;;;;;;;6.23;2.93;;;19.50;99.90;;;;;;488504;243;28681;-68
2022/08/09 07:24:31;;;;;;;3.03;2.83;;;19.40;99.90;;;;;;488523;243;28722;-68
2022/08/09 07:26:32;;;;;;;3.37;2.57;;;19.50;99.90;;;;;;488422;243;28710;-69
2022/08/09 07:28:34;;;;;;;3.43;3.10;;;19.50;99.90;;;;;;488525;243;28770;-68
2022/08/09 07:30:35;;;;;;;3.27;2.80;;;19.70;99.90;;;;;;488543;243;28714;-71
2022/08/09 07:32:36;;;;;;;2.87;2.67;;;19.70;99.90;;;;;;488511;243;28674;-68
2022/08/09 07:34:37;;;;;;;4.00;2.70;;;19.80;99.90;;;;;;488490;243;28739;-69
2022/08/09 07:36:39;;;;;;;2.70;2.50;;;19.70;99.90;;;;;;488373;243;28746;-68
2022/08/09 07:38:40;;;;;;;4.03;2.80;;;19.80;99.90;;;;;;488492;243;28690;-69
2022/08/09 07:40:41;;;;;;;4.40;2.70;;;19.90;99.90;;;;;;488517;243;29190;-71
2022/08/09 07:42:42;;;;;;;3.90;2.90;;;20.00;99.90;;;;;;488519;243;29203;-68
2022/08/09 07:44:44;;;;;;;5.67;2.77;;;20.10;99.20;;;;;;488527;243;29201;-69
2022/08/09 07:46:46;;;;;;;6.13;3.00;;;20.20;99.30;;;;;;488447;242;28684;-68
2022/08/09 07:48:46;;;;;;;3.30;3.00;;;20.20;98.70;;;;;;488454;243;28803;-69
2022/08/09 07:50:47;;;;;;;2.90;2.70;;;20.10;98.70;;;;;;488517;243;28782;-73
2022/08/09 07:52:49;;;;;;;3.03;2.73;;;20.10;98.60;;;;;;488512;243;28755;-68
2022/08/09 07:54:50;;;;;;;2.47;2.30;;;20.20;98.70;;;;;;488508;243;28718;-69
2022/08/09 07:56:51;;;;;;;3.60;2.40;;;20.30;98.40;;;;;;488347;243;28686;-68
2022/08/09 07:58:52;;;;;;;2.80;2.43;;;20.30;98.40;;;;;;488501;243;28810;-68
2022/08/09 08:00:54;;;;;;;4.03;2.70;;;20.30;98.40;;;;;;488524;243;28745;-73
2022/08/09 08:02:55;;;;;;;3.40;3.10;;;20.50;97.90;;;;;;488518;243;28692;-69
2022/08/09 08:04:56;;;;;;;6.13;2.67;;;20.60;97.70;;;;;;488511;243;29269;-69
2022/08/09 08:06:57;;;;;;;5.20;2.57;;;20.60;97.60;;;;;;488459;243;29135;-68
2022/08/09 08:08:59;;;;;;;2.30;2.20;;;20.60;97.70;;;;;;488516;243;29197;-69
2022/08/09 08:11:00;;;;;;;2.80;2.50;;;20.80;97.60;;;;;;488512;243;28701;-68
2022/08/09 08:13:01;;;;;;;2.87;2.60;;;20.80;97.30;;;;;;488527;243;28763;-68
2022/08/09 08:15:03;;;;;;;2.87;2.67;;;21.00;96.80;;;;;;488524;243;28745;-71
2022/08/09 08:17:04;;;;;;;2.50;2.30;;;21.00;97.20;;;;;;488289;243;28751;-68
2022/08/09 08:19:05;;;;;;;4.63;2.50;;;21.10;96.80;;;;;;488493;243;28774;-69
2022/08/09 08:21:06;;;;;;;3.17;2.50;;;21.30;97.00;;;;;;488524;243;28740;-69
2022/08/09 08:23:07;;;;;;;2.57;2.37;;;21.40;96.20;;;;;;488547;243;28683;-69
2022/08/09 08:25:09;;;;;;;2.97;2.67;;;21.40;96.10;;;;;;488526;243;28785;-70
2022/08/09 08:27:10;;;;;;;3.40;2.90;;;21.50;96.50;;;;;;488334;243;28674;-69
2022/08/09 08:29:11;;;;;;;6.03;2.80;;;21.60;96.30;;;;;;488508;243;29180;-69
2022/08/09 08:31:12;;;;;;;2.97;2.60;;;21.50;95.80;;;;;;488495;243;29901;-72
2022/08/09 08:33:14;;;;;;;3.53;2.60;;;21.60;95.80;;;;;;488502;243;29262;-69
2022/08/09 08:35:15;;;;;;;2.57;2.47;;;21.70;96.10;;;;;;488396;243;29270;-70
2022/08/09 08:37:16;;;;;;;4.57;2.90;;;21.80;96.20;;;;;;488419;243;28671;-69
2022/08/09 08:39:17;;;;;;;3.47;2.57;;;21.90;95.60;;;;;;488434;242;28712;-69
2022/08/09 08:41:20;;;;;;;4.20;2.37;;;21.80;95.80;;;;;;488499;243;28821;-73
2022/08/09 08:43:22;;;;;;;3.93;2.90;;;22.00;95.90;;;;;;488509;243;28787;-70
2022/08/09 08:45:22;;;;;;;2.60;2.40;;;22.00;95.90;;;;;;488451;243;28716;-68
2022/08/09 08:47:24;;;;;;;4.60;2.53;;;22.10;95.90;;;;;;488369;243;29202;-69
2022/08/09 08:49:25;;;;;;;4.53;2.73;;;22.20;95.90;;;;;;488510;243;29465;-69
2022/08/09 08:51:26;;;;;;;2.97;2.77;;;22.40;95.50;;;;;;488495;243;29130;-69
2022/08/09 08:53:27;;;;;;;2.60;2.40;;;22.40;95.50;;;;;;488462;243;28770;-70
2022/08/09 08:55:29;;;;;;;3.00;2.53;;;22.40;95.70;;;;;;488523;243;28829;-68
2022/08/09 08:57:30;;;;;;;3.40;2.77;;;22.60;95.70;;;;;;488442;243;28717;-70
2022/08/09 08:59:31;;;;;;;5.70;2.70;;;22.60;95.30;;;;;;488491;243;28774;-69
2022/08/09 09:01:32;;;;;;;2.70;2.40;;;22.40;95.50;;;;;;488509;243;28786;-72
2022/08/09 09:03:34;;;;;;;2.87;2.20;;;22.70;95.40;;;;;;488516;243;28841;-72
2022/08/09 09:05:35;;;;;;;4.93;2.73;;;22.50;95.00;;;;;;488498;243;28738;-69
2022/08/09 09:07:36;;;;;;;3.23;2.50;;;22.50;95.60;;;;;;488376;243;28707;-69
2022/08/09 09:09:38;;;;;;;2.60;2.40;;;22.70;95.30;;;;;;488379;243;29091;-69
2022/08/09 09:11:39;;;;;;;3.17;2.60;;;22.80;95.50;;;;;;488515;243;29214;-69
2022/08/09 09:13:40;;;;;;;3.67;2.47;;;22.90;94.90;;;;;;488501;243;29282;-70
2022/08/09 09:15:41;;;;;;;2.83;2.57;;;22.70;95.80;;;;;;488503;243;29247;-69
2022/08/09 09:17:42;;;;;;;4.17;2.87;;;23.00;95.20;;;;;;488429;243;29311;-69
2022/08/09 09:19:44;;;;;;;2.93;2.73;;;23.00;95.50;;;;;;488529;243;28712;-68
2022/08/09 09:21:45;;;;;;;2.40;2.30;;;23.10;95.10;;;;;;488550;243;28749;-69
2022/08/09 09:23:46;;;;;;;3.07;2.87;;;23.20;95.30;;;;;;488563;243;28706;-70
2022/08/09 09:25:47;;;;;;;2.90;2.60;;;23.20;95.20;;;;;;488527;243;28687;-69
2022/08/09 09:27:49;;;;;;;2.50;2.40;;;23.20;95.70;;;;;;488490;243;28801;-69
2022/08/09 09:29:50;;;;;;;5.40;3.07;;;23.70;95.30;;;;;;488539;243;28718;-72
2022/08/09 09:31:51;;;;;;;4.03;2.70;;;24.00;94.80;;;;;;488537;243;28776;-70
2022/08/09 09:33:52;;;;;;;3.17;2.90;;;23.90;94.70;;;;;;488468;243;29108;-69
2022/08/09 09:35:54;;;;;;;2.83;2.53;;;23.70;94.50;;;;;;488428;243;29206;-69
2022/08/09 09:37:55;;;;;;;2.80;2.60;;;23.80;95.00;;;;;;488468;243;29232;-69
2022/08/09 09:39:56;;;;;;;2.87;2.53;;;23.90;94.80;;;;;;488547;243;29320;-71
2022/08/09 09:41:57;;;;;;;2.33;2.23;;;23.60;95.10;;;;;;488540;243;29220;-69
2022/08/09 09:43:59;;;;;;;2.60;2.40;;;23.70;95.50;;;;;;488536;243;28780;-69
2022/08/09 09:46:04;;;;;;;2.40;2.20;;;23.90;94.90;;;;;;488500;243;28791;-69
2022/08/09 09:48:01;;;;;;;2.20;2.10;;;23.90;95.30;;;;;;488213;243;28721;-70
2022/08/09 09:50:04;;;;;;;3.03;2.43;;;23.90;94.80;;;;;;488553;243;28705;-72
2022/08/09 09:52:05;;;;;;;5.27;2.13;;;24.40;94.70;;;;;;488549;243;28820;-70
2022/08/09 09:54:06;;;;;;;4.23;2.80;;;24.70;94.40;;;;;;488537;243;28684;-69
2022/08/09 09:56:07;;;;;;;3.30;2.50;;;24.70;93.90;;;;;;488450;243;29191;-70
2022/08/09 09:58:09;;;;;;;3.83;2.63;;;24.60;93.70;;;;;;488415;243;29306;-71
2022/08/09 10:00:10;;;;;;;2.57;2.37;;;24.50;93.70;;;;;;488372;243;29161;-69
2022/08/09 10:02:11;;;;;;;2.37;2.27;;;24.70;93.50;;;;;;488332;243;29204;-69
2022/08/09 10:04:12;;;;;;;2.50;2.20;;;24.70;93.10;;;;;;488498;243;28800;-69
2022/08/09 10:06:14;;;;;;;4.50;2.43;;;24.80;93.40;;;;;;488385;243;28763;-69
2022/08/09 10:08:16;;;;;;;5.70;2.50;;;25.00;92.70;;;;;;488546;243;28817;-73
2022/08/09 10:10:17;;;;;;;3.20;2.33;;;24.60;93.20;;;;;;488543;243;29162;-72
2022/08/09 10:12:18;;;;;;;2.43;2.03;;;24.40;93.80;;;;;;488514;243;28754;-69
2022/08/09 10:14:20;;;;;;;4.10;2.40;;;24.70;93.20;;;;;;488506;243;29176;-68
2022/08/09 10:16:21;;;;;;;2.47;2.37;;;25.00;92.90;;;;;;488434;243;29942;-69
2022/08/09 10:18:22;;;;;;;2.83;2.63;;;25.10;93.00;;;;;;488546;243;29278;-69
2022/08/09 10:20:25;;;;;;;2.57;2.47;;;25.00;92.70;;;;;;488537;243;29211;-71
2022/08/09 10:22:25;;;;;;;2.40;2.30;;;25.00;92.20;;;;;;488422;243;28757;-69
2022/08/09 10:24:26;;;;;;;2.50;2.30;;;25.20;92.10;;;;;;488508;243;28705;-69
2022/08/09 10:26:27;;;;;;;2.37;2.17;;;25.00;92.80;;;;;;488454;243;29930;-68
2022/08/09 10:28:29;;;;;;;2.47;1.90;;;25.00;93.40;;;;;;488536;243;28761;-69
2022/08/09 10:30:30;;;;;;;2.97;1.93;;;24.90;93.00;;;;;;488522;243;28720;-70
2022/08/09 10:32:31;;;;;;;2.50;2.30;;;24.90;93.40;;;;;;488509;243;28786;-69